sensor_id;sensor_type;location;lat;lon;timestamp;P1;durP1;ratioP1;P2;durP2;ratioP2
62457;SDS011;48509;52.122;5.250;2023-06-24T00:01:00;13.9;;;8.2;;
62457;SDS011;48509;52.122;5.250;2023-06-24T00:02:36;10.8;;;8.6;;
62457;SDS011;48509;52.122;5.250;2023-06-24T00:05:48;10.1;;;8.9;;
62457;SDS011;48509;52.122;5.250;2023-06-24T00:07:25;9.0;;;8.1;;
62457;SDS011;48509;52.122;5.250;2023-06-24T00:09:01;10.3;;;8.1;;
62457;SDS011;48509;52.122;5.250;2023-06-24T00:12:13;10.6;;;7.8;;
62457;SDS011;48509;52.122;5.250;2023-06-24T00:13:49;11.4;;;8.0;;
62457;SDS011;48509;52.122;5.250;2023-06-24T00:15:25;10.7;;;9.1;;
62457;SDS011;48509;52.122;5.250;2023-06-24T00:17:02;9.1;;;8.2;;
62457;SDS011;48509;52.122;5.250;2023-06-24T00:21:50;10.4;;;8.31;;
62457;SDS011;48509;52.122;5.250;2023-06-24T00:23:28;11.3;;;8.1;;
62457;SDS011;48509;52.122;5.250;2023-06-24T00:26:42;10.4;;;8.71;;
62457;SDS011;48509;52.122;5.250;2023-06-24T00:28:18;10.5;;;8.9;;
62457;SDS011;48509;52.122;5.250;2023-06-24T00:29:55;9.0;;;8.1;;
62457;SDS011;48509;52.122;5.250;2023-06-24T00:33:07;10.0;;;8.31;;
62457;SDS011;48509;52.122;5.250;2023-06-24T00:34:43;9.4;;;8.4;;
62457;SDS011;48509;52.122;5.250;2023-06-24T00:36:19;11.9;;;9.4;;
62457;SDS011;48509;52.122;5.250;2023-06-24T00:37:56;12.0;;;9.21;;
62457;SDS011;48509;52.122;5.250;2023-06-24T00:41:09;9.5;;;8.5;;
62457;SDS011;48509;52.122;5.250;2023-06-24T00:42:46;8.81;;;7.7;;
62457;SDS011;48509;52.122;5.250;2023-06-24T00:44:22;9.5;;;8.5;;
62457;SDS011;48509;52.122;5.250;2023-06-24T00:47:36;11.2;;;9.5;;
62457;SDS011;48509;52.122;5.250;2023-06-24T00:49:12;10.7;;;9.4;;
62457;SDS011;48509;52.122;5.250;2023-06-24T00:50:48;10.21;;;9.21;;
62457;SDS011;48509;52.122;5.250;2023-06-24T00:54:01;10.0;;;9.0;;
62457;SDS011;48509;52.122;5.250;2023-06-24T00:55:37;11.2;;;9.21;;
62457;SDS011;48509;52.122;5.250;2023-06-24T00:57:14;11.3;;;9.0;;
62457;SDS011;48509;52.122;5.250;2023-06-24T00:58:51;11.5;;;9.5;;
62457;SDS011;48509;52.122;5.250;2023-06-24T01:02:04;10.9;;;9.21;;
62457;SDS011;48509;52.122;5.250;2023-06-24T01:03:40;11.3;;;9.0;;
62457;SDS011;48509;52.122;5.250;2023-06-24T01:05:16;10.5;;;8.9;;
62457;SDS011;48509;52.122;5.250;2023-06-24T01:08:31;11.6;;;9.4;;
62457;SDS011;48509;52.122;5.250;2023-06-24T01:10:08;10.3;;;9.31;;
62457;SDS011;48509;52.122;5.250;2023-06-24T01:11:45;12.8;;;9.21;;
62457;SDS011;48509;52.122;5.250;2023-06-24T01:14:57;11.4;;;9.31;;
62457;SDS011;48509;52.122;5.250;2023-06-24T01:16:37;10.8;;;9.1;;
62457;SDS011;48509;52.122;5.250;2023-06-24T01:18:32;10.4;;;8.9;;
62457;SDS011;48509;52.122;5.250;2023-06-24T01:20:17;13.4;;;9.31;;
62457;SDS011;48509;52.122;5.250;2023-06-24T01:22:03;11.3;;;9.6;;
62457;SDS011;48509;52.122;5.250;2023-06-24T01:24:12;11.4;;;10.21;;
62457;SDS011;48509;52.122;5.250;2023-06-24T01:26:42;10.3;;;9.21;;
62457;SDS011;48509;52.122;5.250;2023-06-24T01:30:00;12.8;;;10.0;;
62457;SDS011;48509;52.122;5.250;2023-06-24T01:31:53;11.0;;;9.81;;
62457;SDS011;48509;52.122;5.250;2023-06-24T01:33:36;12.3;;;9.81;;
62457;SDS011;48509;52.122;5.250;2023-06-24T01:35:19;11.8;;;9.1;;
62457;SDS011;48509;52.122;5.250;2023-06-24T01:37:11;11.9;;;9.9;;
62457;SDS011;48509;52.122;5.250;2023-06-24T01:38:55;11.6;;;10.0;;
62457;SDS011;48509;52.122;5.250;2023-06-24T01:40:40;11.1;;;10.0;;
62457;SDS011;48509;52.122;5.250;2023-06-24T01:43:58;11.2;;;9.81;;
62457;SDS011;48509;52.122;5.250;2023-06-24T01:45:36;15.5;;;11.7;;
62457;SDS011;48509;52.122;5.250;2023-06-24T01:47:16;12.7;;;10.3;;
62457;SDS011;48509;52.122;5.250;2023-06-24T01:50:37;13.9;;;10.3;;
62457;SDS011;48509;52.122;5.250;2023-06-24T01:52:18;11.2;;;10.1;;
62457;SDS011;48509;52.122;5.250;2023-06-24T01:53:59;10.8;;;9.81;;
62457;SDS011;48509;52.122;5.250;2023-06-24T01:55:39;11.0;;;9.9;;
62457;SDS011;48509;52.122;5.250;2023-06-24T01:58:57;10.5;;;9.4;;
62457;SDS011;48509;52.122;5.250;2023-06-24T02:00:35;10.3;;;8.81;;
62457;SDS011;48509;52.122;5.250;2023-06-24T02:02:12;9.71;;;8.81;;
62457;SDS011;48509;52.122;5.250;2023-06-24T02:03:50;9.71;;;8.81;;
62457;SDS011;48509;52.122;5.250;2023-06-24T02:07:08;12.4;;;9.71;;
62457;SDS011;48509;52.122;5.250;2023-06-24T02:08:47;12.4;;;9.6;;
62457;SDS011;48509;52.122;5.250;2023-06-24T02:10:27;11.8;;;10.3;;
62457;SDS011;48509;52.122;5.250;2023-06-24T02:12:05;12.0;;;10.6;;
62457;SDS011;48509;52.122;5.250;2023-06-24T02:15:20;10.7;;;9.6;;
62457;SDS011;48509;52.122;5.250;2023-06-24T02:16:59;13.5;;;10.21;;
62457;SDS011;48509;52.122;5.250;2023-06-24T02:18:36;12.5;;;10.6;;
62457;SDS011;48509;52.122;5.250;2023-06-24T02:21:53;12.7;;;10.4;;
62457;SDS011;48509;52.122;5.250;2023-06-24T02:23:31;11.5;;;10.0;;
62457;SDS011;48509;52.122;5.250;2023-06-24T02:25:10;10.7;;;9.71;;
62457;SDS011;48509;52.122;5.250;2023-06-24T02:26:48;13.1;;;9.9;;
62457;SDS011;48509;52.122;5.250;2023-06-24T02:30:03;11.3;;;9.31;;
62457;SDS011;48509;52.122;5.250;2023-06-24T02:31:43;9.81;;;8.81;;
62457;SDS011;48509;52.122;5.250;2023-06-24T02:33:19;11.3;;;9.81;;
62457;SDS011;48509;52.122;5.250;2023-06-24T02:36:32;10.4;;;9.4;;
62457;SDS011;48509;52.122;5.250;2023-06-24T02:38:09;11.2;;;10.21;;
62457;SDS011;48509;52.122;5.250;2023-06-24T02:39:45;11.2;;;10.1;;
62457;SDS011;48509;52.122;5.250;2023-06-24T02:41:21;10.9;;;9.6;;
62457;SDS011;48509;52.122;5.250;2023-06-24T02:44:35;11.4;;;9.81;;
62457;SDS011;48509;52.122;5.250;2023-06-24T02:46:11;11.4;;;9.71;;
62457;SDS011;48509;52.122;5.250;2023-06-24T02:47:50;11.6;;;10.4;;
62457;SDS011;48509;52.122;5.250;2023-06-24T02:51:05;12.4;;;11.1;;
62457;SDS011;48509;52.122;5.250;2023-06-24T02:52:44;11.0;;;9.81;;
62457;SDS011;48509;52.122;5.250;2023-06-24T02:54:21;10.8;;;9.71;;
62457;SDS011;48509;52.122;5.250;2023-06-24T02:55:58;11.0;;;9.9;;
62457;SDS011;48509;52.122;5.250;2023-06-24T02:59:11;12.6;;;10.9;;
62457;SDS011;48509;52.122;5.250;2023-06-24T03:00:47;12.2;;;10.9;;
62457;SDS011;48509;52.122;5.250;2023-06-24T03:02:24;12.9;;;11.0;;
62457;SDS011;48509;52.122;5.250;2023-06-24T03:05:37;13.4;;;11.6;;
62457;SDS011;48509;52.122;5.250;2023-06-24T03:07:14;12.4;;;10.6;;
62457;SDS011;48509;52.122;5.250;2023-06-24T03:08:50;11.5;;;10.3;;
62457;SDS011;48509;52.122;5.250;2023-06-24T03:12:05;10.7;;;9.4;;
62457;SDS011;48509;52.122;5.250;2023-06-24T03:13:42;12.7;;;9.81;;
62457;SDS011;48509;52.122;5.250;2023-06-24T03:15:19;11.3;;;10.21;;
62457;SDS011;48509;52.122;5.250;2023-06-24T03:16:55;11.5;;;10.3;;
62457;SDS011;48509;52.122;5.250;2023-06-24T03:20:08;12.0;;;10.8;;
62457;SDS011;48509;52.122;5.250;2023-06-24T03:21:44;12.2;;;10.9;;
62457;SDS011;48509;52.122;5.250;2023-06-24T03:23:20;12.3;;;11.0;;
62457;SDS011;48509;52.122;5.250;2023-06-24T03:26:33;12.8;;;11.4;;
62457;SDS011;48509;52.122;5.250;2023-06-24T03:28:11;12.7;;;11.4;;
62457;SDS011;48509;52.122;5.250;2023-06-24T03:29:47;12.8;;;10.9;;
62457;SDS011;48509;52.122;5.250;2023-06-24T03:32:59;12.0;;;10.7;;
62457;SDS011;48509;52.122;5.250;2023-06-24T03:34:36;15.5;;;11.3;;
62457;SDS011;48509;52.122;5.250;2023-06-24T03:36:12;12.4;;;11.1;;
62457;SDS011;48509;52.122;5.250;2023-06-24T03:37:48;12.5;;;11.3;;
62457;SDS011;48509;52.122;5.250;2023-06-24T03:41:01;11.2;;;10.1;;
62457;SDS011;48509;52.122;5.250;2023-06-24T03:42:37;11.8;;;10.7;;
62457;SDS011;48509;52.122;5.250;2023-06-24T03:44:13;14.7;;;11.4;;
62457;SDS011;48509;52.122;5.250;2023-06-24T03:47:27;13.0;;;11.0;;
62457;SDS011;48509;52.122;5.250;2023-06-24T03:49:03;12.1;;;10.7;;
62457;SDS011;48509;52.122;5.250;2023-06-24T03:50:40;14.5;;;11.6;;
62457;SDS011;48509;52.122;5.250;2023-06-24T03:53:52;13.4;;;11.6;;
62457;SDS011;48509;52.122;5.250;2023-06-24T03:55:28;15.3;;;12.8;;
62457;SDS011;48509;52.122;5.250;2023-06-24T03:57:05;15.0;;;12.1;;
62457;SDS011;48509;52.122;5.250;2023-06-24T03:58:42;13.0;;;11.6;;
62457;SDS011;48509;52.122;5.250;2023-06-24T04:01:54;13.1;;;11.7;;
62457;SDS011;48509;52.122;5.250;2023-06-24T04:03:30;11.3;;;10.0;;
62457;SDS011;48509;52.122;5.250;2023-06-24T04:05:06;14.2;;;9.81;;
62457;SDS011;48509;52.122;5.250;2023-06-24T04:08:18;14.1;;;10.8;;
62457;SDS011;48509;52.122;5.250;2023-06-24T04:09:55;12.3;;;11.0;;
62457;SDS011;48509;52.122;5.250;2023-06-24T04:11:32;14.2;;;11.3;;
62457;SDS011;48509;52.122;5.250;2023-06-24T04:14:44;13.9;;;11.6;;
62457;SDS011;48509;52.122;5.250;2023-06-24T04:16:20;13.3;;;11.9;;
62457;SDS011;48509;52.122;5.250;2023-06-24T04:17:56;14.5;;;10.9;;
62457;SDS011;48509;52.122;5.250;2023-06-24T04:21:09;13.5;;;12.1;;
62457;SDS011;48509;52.122;5.250;2023-06-24T04:22:45;13.8;;;12.4;;
62457;SDS011;48509;52.122;5.250;2023-06-24T04:24:21;12.9;;;11.6;;
62457;SDS011;48509;52.122;5.250;2023-06-24T04:25:57;13.3;;;11.9;;
62457;SDS011;48509;52.122;5.250;2023-06-24T04:29:10;15.9;;;12.4;;
62457;SDS011;48509;52.122;5.250;2023-06-24T04:30:46;15.6;;;12.9;;
62457;SDS011;48509;52.122;5.250;2023-06-24T04:32:22;13.8;;;12.4;;
62457;SDS011;48509;52.122;5.250;2023-06-24T04:35:35;14.8;;;13.2;;
62457;SDS011;48509;52.122;5.250;2023-06-24T04:37:11;16.5;;;13.5;;
62457;SDS011;48509;52.122;5.250;2023-06-24T04:38:47;14.6;;;13.0;;
62457;SDS011;48509;52.122;5.250;2023-06-24T04:41:59;13.5;;;11.8;;
62457;SDS011;48509;52.122;5.250;2023-06-24T04:43:36;13.2;;;11.7;;
62457;SDS011;48509;52.122;5.250;2023-06-24T04:45:12;12.4;;;11.1;;
62457;SDS011;48509;52.122;5.250;2023-06-24T04:46:48;13.4;;;10.6;;
62457;SDS011;48509;52.122;5.250;2023-06-24T04:50:00;11.9;;;10.8;;
62457;SDS011;48509;52.122;5.250;2023-06-24T04:51:36;11.6;;;10.4;;
62457;SDS011;48509;52.122;5.250;2023-06-24T04:53:12;12.5;;;11.2;;
62457;SDS011;48509;52.122;5.250;2023-06-24T04:56:25;12.8;;;10.1;;
62457;SDS011;48509;52.122;5.250;2023-06-24T04:58:01;12.0;;;10.7;;
62457;SDS011;48509;52.122;5.250;2023-06-24T04:59:37;11.9;;;10.21;;
62457;SDS011;48509;52.122;5.250;2023-06-24T05:02:49;12.8;;;11.0;;
62457;SDS011;48509;52.122;5.250;2023-06-24T05:04:25;13.7;;;11.2;;
62457;SDS011;48509;52.122;5.250;2023-06-24T05:06:01;13.4;;;10.8;;
62457;SDS011;48509;52.122;5.250;2023-06-24T05:09:14;11.8;;;10.3;;
62457;SDS011;48509;52.122;5.250;2023-06-24T05:10:50;11.9;;;10.7;;
62457;SDS011;48509;52.122;5.250;2023-06-24T05:12:26;13.6;;;10.7;;
62457;SDS011;48509;52.122;5.250;2023-06-24T05:14:02;11.7;;;10.5;;
62457;SDS011;48509;52.122;5.250;2023-06-24T05:17:14;11.8;;;10.6;;
62457;SDS011;48509;52.122;5.250;2023-06-24T05:18:50;11.5;;;10.3;;
62457;SDS011;48509;52.122;5.250;2023-06-24T05:20:27;12.7;;;9.4;;
62457;SDS011;48509;52.122;5.250;2023-06-24T05:23:40;12.0;;;10.8;;
62457;SDS011;48509;52.122;5.250;2023-06-24T05:25:16;12.1;;;10.5;;
62457;SDS011;48509;52.122;5.250;2023-06-24T05:26:52;10.21;;;9.21;;
62457;SDS011;48509;52.122;5.250;2023-06-24T05:30:05;10.21;;;9.21;;
62457;SDS011;48509;52.122;5.250;2023-06-24T05:31:43;11.2;;;10.0;;
62457;SDS011;48509;52.122;5.250;2023-06-24T05:33:20;11.2;;;10.1;;
62457;SDS011;48509;52.122;5.250;2023-06-24T05:34:56;12.4;;;11.1;;
62457;SDS011;48509;52.122;5.250;2023-06-24T05:38:08;13.1;;;11.4;;
62457;SDS011;48509;52.122;5.250;2023-06-24T05:39:44;10.7;;;9.6;;
62457;SDS011;48509;52.122;5.250;2023-06-24T05:41:20;13.4;;;9.31;;
62457;SDS011;48509;52.122;5.250;2023-06-24T05:44:33;10.4;;;9.31;;
62457;SDS011;48509;52.122;5.250;2023-06-24T05:46:09;10.1;;;8.9;;
62457;SDS011;48509;52.122;5.250;2023-06-24T05:47:45;11.3;;;9.4;;
62457;SDS011;48509;52.122;5.250;2023-06-24T05:50:57;9.71;;;8.71;;
62457;SDS011;48509;52.122;5.250;2023-06-24T05:52:33;9.21;;;8.31;;
62457;SDS011;48509;52.122;5.250;2023-06-24T05:54:09;11.2;;;9.71;;
62457;SDS011;48509;52.122;5.250;2023-06-24T05:57:22;9.4;;;8.4;;
62457;SDS011;48509;52.122;5.250;2023-06-24T05:58:58;12.6;;;9.71;;
62457;SDS011;48509;52.122;5.250;2023-06-24T06:00:34;12.6;;;9.5;;
62457;SDS011;48509;52.122;5.250;2023-06-24T06:02:10;9.5;;;8.6;;
62457;SDS011;48509;52.122;5.250;2023-06-24T06:05:22;9.5;;;8.6;;
62457;SDS011;48509;52.122;5.250;2023-06-24T06:06:59;10.21;;;8.31;;
62457;SDS011;48509;52.122;5.250;2023-06-24T06:08:34;9.21;;;8.2;;
62457;SDS011;48509;52.122;5.250;2023-06-24T06:11:46;10.5;;;8.1;;
62457;SDS011;48509;52.122;5.250;2023-06-24T06:13:22;9.31;;;8.31;;
62457;SDS011;48509;52.122;5.250;2023-06-24T06:14:59;13.6;;;9.71;;
62457;SDS011;48509;52.122;5.250;2023-06-24T06:18:12;9.31;;;8.0;;
62457;SDS011;48509;52.122;5.250;2023-06-24T06:19:48;10.3;;;8.4;;
62457;SDS011;48509;52.122;5.250;2023-06-24T06:21:24;9.21;;;7.8;;
62457;SDS011;48509;52.122;5.250;2023-06-24T06:23:00;10.1;;;7.8;;
62457;SDS011;48509;52.122;5.250;2023-06-24T06:27:48;10.6;;;7.0;;
62457;SDS011;48509;52.122;5.250;2023-06-24T06:29:24;8.0;;;7.2;;
62457;SDS011;48509;52.122;5.250;2023-06-24T06:32:37;8.9;;;7.3;;
62457;SDS011;48509;52.122;5.250;2023-06-24T06:34:13;7.8;;;7.0;;
62457;SDS011;48509;52.122;5.250;2023-06-24T06:35:49;8.31;;;6.6;;
62457;SDS011;48509;52.122;5.250;2023-06-24T06:39:01;9.21;;;7.4;;
62457;SDS011;48509;52.122;5.250;2023-06-24T06:40:37;7.8;;;7.0;;
62457;SDS011;48509;52.122;5.250;2023-06-24T06:42:13;6.8;;;6.0;;
62457;SDS011;48509;52.122;5.250;2023-06-24T06:45:29;13.4;;;6.1;;
62457;SDS011;48509;52.122;5.250;2023-06-24T06:47:05;12.3;;;7.0;;
62457;SDS011;48509;52.122;5.250;2023-06-24T06:48:42;12.2;;;7.6;;
62457;SDS011;48509;52.122;5.250;2023-06-24T06:50:18;8.4;;;6.5;;
62457;SDS011;48509;52.122;5.250;2023-06-24T06:53:30;9.6;;;6.5;;
62457;SDS011;48509;52.122;5.250;2023-06-24T06:55:07;7.7;;;6.8;;
62457;SDS011;48509;52.122;5.250;2023-06-24T06:56:45;6.5;;;5.8;;
62457;SDS011;48509;52.122;5.250;2023-06-24T06:59:57;7.1;;;5.9;;
62457;SDS011;48509;52.122;5.250;2023-06-24T07:01:33;8.9;;;5.9;;
62457;SDS011;48509;52.122;5.250;2023-06-24T07:03:09;6.4;;;5.8;;
62457;SDS011;48509;52.122;5.250;2023-06-24T07:06:21;9.0;;;6.7;;
62457;SDS011;48509;52.122;5.250;2023-06-24T07:07:58;8.31;;;6.2;;
62457;SDS011;48509;52.122;5.250;2023-06-24T07:09:34;6.2;;;5.6;;
62457;SDS011;48509;52.122;5.250;2023-06-24T07:11:10;7.6;;;5.9;;
62457;SDS011;48509;52.122;5.250;2023-06-24T07:14:22;7.2;;;6.2;;
62457;SDS011;48509;52.122;5.250;2023-06-24T07:15:58;9.5;;;6.7;;
62457;SDS011;48509;52.122;5.250;2023-06-24T07:17:34;8.6;;;6.9;;
62457;SDS011;48509;52.122;5.250;2023-06-24T07:20:47;7.8;;;6.1;;
62457;SDS011;48509;52.122;5.250;2023-06-24T07:22:23;10.9;;;6.6;;
62457;SDS011;48509;52.122;5.250;2023-06-24T07:23:59;7.7;;;6.2;;
62457;SDS011;48509;52.122;5.250;2023-06-24T07:27:11;6.5;;;5.8;;
62457;SDS011;48509;52.122;5.250;2023-06-24T07:28:47;5.5;;;4.41;;
62457;SDS011;48509;52.122;5.250;2023-06-24T07:30:23;5.6;;;5.0;;
62457;SDS011;48509;52.122;5.250;2023-06-24T07:33:36;8.2;;;5.5;;
62457;SDS011;48509;52.122;5.250;2023-06-24T07:35:12;6.0;;;5.4;;
62457;SDS011;48509;52.122;5.250;2023-06-24T07:36:48;7.3;;;5.3;;
62457;SDS011;48509;52.122;5.250;2023-06-24T07:38:24;9.9;;;6.1;;
62457;SDS011;48509;52.122;5.250;2023-06-24T07:41:36;9.31;;;5.2;;
62457;SDS011;48509;52.122;5.250;2023-06-24T07:43:13;8.31;;;6.2;;
62457;SDS011;48509;52.122;5.250;2023-06-24T07:44:49;6.5;;;5.8;;
62457;SDS011;48509;52.122;5.250;2023-06-24T07:48:01;10.4;;;6.3;;
62457;SDS011;48509;52.122;5.250;2023-06-24T07:49:37;11.2;;;5.7;;
62457;SDS011;48509;52.122;5.250;2023-06-24T07:51:13;6.4;;;5.5;;
62457;SDS011;48509;52.122;5.250;2023-06-24T07:54:25;6.3;;;5.11;;
62457;SDS011;48509;52.122;5.250;2023-06-24T07:57:39;6.6;;;5.6;;
62457;SDS011;48509;52.122;5.250;2023-06-24T07:59:15;7.7;;;5.5;;
62457;SDS011;48509;52.122;5.250;2023-06-24T08:02:27;9.0;;;6.6;;
62457;SDS011;48509;52.122;5.250;2023-06-24T08:04:03;5.8;;;5.2;;
62457;SDS011;48509;52.122;5.250;2023-06-24T08:05:39;9.1;;;5.9;;
62457;SDS011;48509;52.122;5.250;2023-06-24T08:08:52;8.1;;;5.4;;
62457;SDS011;48509;52.122;5.250;2023-06-24T08:10:28;9.9;;;7.2;;
62457;SDS011;48509;52.122;5.250;2023-06-24T08:15:17;7.5;;;5.11;;
62457;SDS011;48509;52.122;5.250;2023-06-24T08:16:53;9.4;;;5.7;;
62457;SDS011;48509;52.122;5.250;2023-06-24T08:18:30;7.9;;;6.4;;
62457;SDS011;48509;52.122;5.250;2023-06-24T08:21:43;7.3;;;5.8;;
62457;SDS011;48509;52.122;5.250;2023-06-24T08:23:19;7.4;;;5.7;;
62457;SDS011;48509;52.122;5.250;2023-06-24T08:24:55;6.4;;;5.7;;
62457;SDS011;48509;52.122;5.250;2023-06-24T08:26:31;9.5;;;5.5;;
62457;SDS011;48509;52.122;5.250;2023-06-24T08:29:44;8.31;;;5.4;;
62457;SDS011;48509;52.122;5.250;2023-06-24T08:31:20;7.5;;;5.5;;
62457;SDS011;48509;52.122;5.250;2023-06-24T08:32:56;7.2;;;5.11;;
62457;SDS011;48509;52.122;5.250;2023-06-24T08:36:08;6.4;;;4.91;;
62457;SDS011;48509;52.122;5.250;2023-06-24T08:37:44;6.2;;;4.61;;
62457;SDS011;48509;52.122;5.250;2023-06-24T08:39:20;10.0;;;6.4;;
62457;SDS011;48509;52.122;5.250;2023-06-24T08:42:34;8.31;;;5.4;;
62457;SDS011;48509;52.122;5.250;2023-06-24T08:44:10;6.6;;;5.2;;
62457;SDS011;48509;52.122;5.250;2023-06-24T08:45:46;9.5;;;7.0;;
62457;SDS011;48509;52.122;5.250;2023-06-24T08:47:23;9.6;;;6.7;;
62457;SDS011;48509;52.122;5.250;2023-06-24T08:50:51;10.9;;;6.5;;
62457;SDS011;48509;52.122;5.250;2023-06-24T08:52:34;10.3;;;7.9;;
62457;SDS011;48509;52.122;5.250;2023-06-24T08:54:13;13.1;;;7.7;;
62457;SDS011;48509;52.122;5.250;2023-06-24T08:55:50;14.1;;;7.6;;
62457;SDS011;48509;52.122;5.250;2023-06-24T08:59:05;9.4;;;7.1;;
62457;SDS011;48509;52.122;5.250;2023-06-24T09:00:42;11.2;;;7.3;;
62457;SDS011;48509;52.122;5.250;2023-06-24T09:02:18;10.6;;;7.5;;
62457;SDS011;48509;52.122;5.250;2023-06-24T09:05:31;12.6;;;6.9;;
62457;SDS011;48509;52.122;5.250;2023-06-24T09:07:07;9.5;;;6.9;;
62457;SDS011;48509;52.122;5.250;2023-06-24T09:08:51;8.6;;;6.1;;
62457;SDS011;48509;52.122;5.250;2023-06-24T09:10:29;11.6;;;7.0;;
62457;SDS011;48509;52.122;5.250;2023-06-24T09:13:46;10.7;;;8.0;;
62457;SDS011;48509;52.122;5.250;2023-06-24T09:15:23;7.9;;;7.1;;
62457;SDS011;48509;52.122;5.250;2023-06-24T09:16:59;11.8;;;7.2;;
62457;SDS011;48509;52.122;5.250;2023-06-24T09:20:12;10.0;;;7.8;;
62457;SDS011;48509;52.122;5.250;2023-06-24T09:21:48;11.0;;;7.5;;
62457;SDS011;48509;52.122;5.250;2023-06-24T09:23:25;8.9;;;6.6;;
62457;SDS011;48509;52.122;5.250;2023-06-24T09:25:01;10.1;;;6.5;;
62457;SDS011;48509;52.122;5.250;2023-06-24T09:28:14;9.4;;;6.5;;
62457;SDS011;48509;52.122;5.250;2023-06-24T09:29:50;11.1;;;7.2;;
62457;SDS011;48509;52.122;5.250;2023-06-24T09:31:27;12.9;;;8.31;;
62457;SDS011;48509;52.122;5.250;2023-06-24T09:34:39;10.6;;;7.9;;
62457;SDS011;48509;52.122;5.250;2023-06-24T09:36:15;8.9;;;7.6;;
62457;SDS011;48509;52.122;5.250;2023-06-24T09:37:52;9.5;;;8.0;;
62457;SDS011;48509;52.122;5.250;2023-06-24T09:41:12;16.4;;;9.31;;
62457;SDS011;48509;52.122;5.250;2023-06-24T09:42:51;10.6;;;8.1;;
62457;SDS011;48509;52.122;5.250;2023-06-24T09:44:28;10.21;;;8.1;;
62457;SDS011;48509;52.122;5.250;2023-06-24T09:46:06;9.1;;;6.8;;
62457;SDS011;48509;52.122;5.250;2023-06-24T09:49:19;13.8;;;7.3;;
62457;SDS011;48509;52.122;5.250;2023-06-24T09:50:55;12.1;;;8.0;;
62457;SDS011;48509;52.122;5.250;2023-06-24T09:52:35;12.8;;;9.1;;
62457;SDS011;48509;52.122;5.250;2023-06-24T09:55:50;9.9;;;8.1;;
62457;SDS011;48509;52.122;5.250;2023-06-24T09:57:27;11.6;;;8.5;;
62457;SDS011;48509;52.122;5.250;2023-06-24T09:59:08;9.21;;;7.3;;
62457;SDS011;48509;52.122;5.250;2023-06-24T10:00:45;11.8;;;7.8;;
62457;SDS011;48509;52.122;5.250;2023-06-24T10:03:59;11.8;;;7.5;;
62457;SDS011;48509;52.122;5.250;2023-06-24T10:05:37;11.8;;;7.6;;
62457;SDS011;48509;52.122;5.250;2023-06-24T10:07:14;9.71;;;7.0;;
62457;SDS011;48509;52.122;5.250;2023-06-24T10:10:28;9.71;;;7.3;;
62457;SDS011;48509;52.122;5.250;2023-06-24T10:12:04;10.0;;;7.8;;
62457;SDS011;48509;52.122;5.250;2023-06-24T10:13:41;11.0;;;8.81;;
62457;SDS011;48509;52.122;5.250;2023-06-24T10:15:17;12.3;;;9.71;;
62457;SDS011;48509;52.122;5.250;2023-06-24T10:18:38;9.6;;;7.5;;
62457;SDS011;48509;52.122;5.250;2023-06-24T10:20:17;7.1;;;6.4;;
62457;SDS011;48509;52.122;5.250;2023-06-24T10:22:00;10.21;;;8.6;;
62457;SDS011;48509;52.122;5.250;2023-06-24T10:23:39;9.31;;;7.8;;
62457;SDS011;48509;52.122;5.250;2023-06-24T10:26:53;14.9;;;10.0;;
62457;SDS011;48509;52.122;5.250;2023-06-24T10:28:55;11.0;;;8.6;;
62457;SDS011;48509;52.122;5.250;2023-06-24T10:30:53;11.6;;;7.3;;
62457;SDS011;48509;52.122;5.250;2023-06-24T10:32:39;10.6;;;7.0;;
62457;SDS011;48509;52.122;5.250;2023-06-24T10:34:20;9.71;;;8.31;;
62457;SDS011;48509;52.122;5.250;2023-06-24T10:37:36;14.0;;;9.31;;
62457;SDS011;48509;52.122;5.250;2023-06-24T10:39:27;14.6;;;9.0;;
62457;SDS011;48509;52.122;5.250;2023-06-24T10:41:15;10.0;;;8.4;;
62457;SDS011;48509;52.122;5.250;2023-06-24T10:42:51;11.3;;;7.9;;
62457;SDS011;48509;52.122;5.250;2023-06-24T10:46:06;13.2;;;9.31;;
62457;SDS011;48509;52.122;5.250;2023-06-24T10:47:51;13.4;;;9.5;;
62457;SDS011;48509;52.122;5.250;2023-06-24T10:49:28;12.3;;;7.9;;
62457;SDS011;48509;52.122;5.250;2023-06-24T10:51:04;12.1;;;8.0;;
62457;SDS011;48509;52.122;5.250;2023-06-24T10:54:18;10.3;;;7.8;;
62457;SDS011;48509;52.122;5.250;2023-06-24T10:55:56;10.5;;;7.3;;
62457;SDS011;48509;52.122;5.250;2023-06-24T10:57:33;13.1;;;8.9;;
62457;SDS011;48509;52.122;5.250;2023-06-24T10:59:09;13.0;;;8.0;;
62457;SDS011;48509;52.122;5.250;2023-06-24T11:02:22;10.9;;;7.7;;
62457;SDS011;48509;52.122;5.250;2023-06-24T11:04:05;15.8;;;10.7;;
62457;SDS011;48509;52.122;5.250;2023-06-24T11:05:41;15.9;;;10.7;;
62457;SDS011;48509;52.122;5.250;2023-06-24T11:09:01;10.9;;;8.1;;
62457;SDS011;48509;52.122;5.250;2023-06-24T11:10:45;11.0;;;7.5;;
62457;SDS011;48509;52.122;5.250;2023-06-24T11:12:23;8.0;;;5.9;;
62457;SDS011;48509;52.122;5.250;2023-06-24T11:14:01;12.0;;;8.71;;
62457;SDS011;48509;52.122;5.250;2023-06-24T11:17:15;9.81;;;7.7;;
62457;SDS011;48509;52.122;5.250;2023-06-24T11:18:51;9.5;;;7.7;;
62457;SDS011;48509;52.122;5.250;2023-06-24T11:20:27;8.4;;;7.3;;
62457;SDS011;48509;52.122;5.250;2023-06-24T11:23:41;8.71;;;7.4;;
62457;SDS011;48509;52.122;5.250;2023-06-24T11:25:17;15.5;;;6.8;;
62457;SDS011;48509;52.122;5.250;2023-06-24T11:26:55;10.0;;;7.2;;
62457;SDS011;48509;52.122;5.250;2023-06-24T11:28:32;9.6;;;6.7;;
62457;SDS011;48509;52.122;5.250;2023-06-24T11:31:46;6.8;;;5.7;;
62457;SDS011;48509;52.122;5.250;2023-06-24T11:33:26;11.1;;;6.6;;
62457;SDS011;48509;52.122;5.250;2023-06-24T11:35:03;9.21;;;6.1;;
62457;SDS011;48509;52.122;5.250;2023-06-24T11:38:16;10.5;;;7.6;;
62457;SDS011;48509;52.122;5.250;2023-06-24T11:40:00;8.6;;;7.7;;
62457;SDS011;48509;52.122;5.250;2023-06-24T11:41:38;10.3;;;5.9;;
62457;SDS011;48509;52.122;5.250;2023-06-24T11:43:14;10.8;;;7.2;;
62457;SDS011;48509;52.122;5.250;2023-06-24T11:46:27;12.9;;;6.9;;
62457;SDS011;48509;52.122;5.250;2023-06-24T11:48:05;9.0;;;6.2;;
62457;SDS011;48509;52.122;5.250;2023-06-24T11:49:48;9.71;;;6.5;;
62457;SDS011;48509;52.122;5.250;2023-06-24T11:51:26;12.4;;;8.1;;
62457;SDS011;48509;52.122;5.250;2023-06-24T11:54:40;7.4;;;5.9;;
62457;SDS011;48509;52.122;5.250;2023-06-24T11:56:17;9.31;;;5.7;;
62457;SDS011;48509;52.122;5.250;2023-06-24T11:57:54;8.6;;;5.5;;
62457;SDS011;48509;52.122;5.250;2023-06-24T12:01:10;5.5;;;4.91;;
62457;SDS011;48509;52.122;5.250;2023-06-24T12:02:48;5.5;;;4.91;;
62457;SDS011;48509;52.122;5.250;2023-06-24T12:04:27;8.4;;;6.7;;
62457;SDS011;48509;52.122;5.250;2023-06-24T12:07:40;7.4;;;5.5;;
62457;SDS011;48509;52.122;5.250;2023-06-24T12:09:16;7.2;;;5.7;;
62457;SDS011;48509;52.122;5.250;2023-06-24T12:10:53;8.2;;;5.8;;
62457;SDS011;48509;52.122;5.250;2023-06-24T12:12:29;6.4;;;5.2;;
62457;SDS011;48509;52.122;5.250;2023-06-24T12:15:41;9.71;;;6.2;;
62457;SDS011;48509;52.122;5.250;2023-06-24T12:17:17;8.81;;;5.9;;
62457;SDS011;48509;52.122;5.250;2023-06-24T12:18:53;8.71;;;5.2;;
62457;SDS011;48509;52.122;5.250;2023-06-24T12:22:07;6.6;;;5.8;;
62457;SDS011;48509;52.122;5.250;2023-06-24T12:23:43;10.1;;;7.3;;
62457;SDS011;48509;52.122;5.250;2023-06-24T12:25:20;9.21;;;6.0;;
62457;SDS011;48509;52.122;5.250;2023-06-24T12:28:32;12.8;;;5.9;;
62457;SDS011;48509;52.122;5.250;2023-06-24T12:30:09;7.7;;;5.7;;
62457;SDS011;48509;52.122;5.250;2023-06-24T12:31:46;9.5;;;4.61;;
62457;SDS011;48509;52.122;5.250;2023-06-24T12:33:22;7.2;;;5.3;;
62457;SDS011;48509;52.122;5.250;2023-06-24T12:36:34;7.2;;;5.9;;
62457;SDS011;48509;52.122;5.250;2023-06-24T12:38:10;9.1;;;5.7;;
62457;SDS011;48509;52.122;5.250;2023-06-24T12:39:46;7.3;;;5.0;;
62457;SDS011;48509;52.122;5.250;2023-06-24T12:42:58;8.9;;;5.3;;
62457;SDS011;48509;52.122;5.250;2023-06-24T12:44:35;6.6;;;5.3;;
62457;SDS011;48509;52.122;5.250;2023-06-24T12:46:11;6.7;;;5.4;;
62457;SDS011;48509;52.122;5.250;2023-06-24T12:49:23;8.71;;;4.91;;
62457;SDS011;48509;52.122;5.250;2023-06-24T12:50:59;6.2;;;4.8;;
62457;SDS011;48509;52.122;5.250;2023-06-24T12:52:36;6.4;;;5.3;;
62457;SDS011;48509;52.122;5.250;2023-06-24T12:54:13;9.6;;;5.9;;